Starke, Florida
Current Conditions -  °F | °C
As of 2:15 PM on Saturday 20 Dec 2014 (Local Time) from K42J Reporting Station
Overcast Overcast  
Wind Chill: 72°   Ceiling: 4400
Heat Index: 72°   Visibility: 9mi
Dew Point: 54°   Wind: 9mph
Humidity: 53%   Direction: 40°NE
Pressure: 30.06"   Gusts: NA
Location:  29.95°N, 82.11°W
Report Text: K42J 201915Z AUTO 04008KT 9SM FEW038 OVC044 22/12 A3006 RMK AO1 TSNO
Loading
Personal Weather Stations






























Interactive Weather Map New forecast layout! Learn more

10-Day Weather Forecast

Advertisements
Track Severe Weather on mobile